createdAt,value
2022-12-29T03:43:51.759Z,100.00
2022-12-29T03:46:54.825Z,100.00
2022-12-29T03:49:57.041Z,100.00
2022-12-29T03:52:59.625Z,100.00
2022-12-29T03:56:02.422Z,100.00
2022-12-29T03:59:04.946Z,100.00
2022-12-29T04:02:07.375Z,100.00
2022-12-29T04:05:10.017Z,100.00
2022-12-29T04:08:13.378Z,100.00
2022-12-29T04:11:16.777Z,100.00
2022-12-29T04:14:20.808Z,100.00
2022-12-29T04:17:23.248Z,100.00
2022-12-29T04:20:44.483Z,100.00
2022-12-29T04:23:47.795Z,100.00
2022-12-29T04:26:50.402Z,100.00
2022-12-29T04:29:55.891Z,100.00
2022-12-29T04:32:59.215Z,100.00
2022-12-29T04:36:01.886Z,100.00
2022-12-29T04:39:06.159Z,100.00
2022-12-29T04:42:08.907Z,100.00
2022-12-29T04:45:11.599Z,100.00
2022-12-29T04:48:16.881Z,100.00
2022-12-29T04:51:19.096Z,100.00
2022-12-29T04:54:21.602Z,100.00
2022-12-29T04:57:24.211Z,100.00
2022-12-29T05:00:27.115Z,100.00
2022-12-29T05:03:29.884Z,100.00
2022-12-29T05:06:32.422Z,100.00
2022-12-29T05:09:34.922Z,100.00
2022-12-29T05:12:39.290Z,100.00
2022-12-29T05:15:42.309Z,100.00
2022-12-29T05:18:44.819Z,100.00
2022-12-29T05:21:47.369Z,100.00
2022-12-29T05:24:49.891Z,100.00
2022-12-29T05:27:52.330Z,100.00
2022-12-29T05:30:54.871Z,100.00
2022-12-29T05:33:57.032Z,100.00
2022-12-29T05:36:59.712Z,100.00
2022-12-29T05:40:01.910Z,100.00
2022-12-29T05:43:05.069Z,100.00
2022-12-29T05:46:07.307Z,100.00
2022-12-29T05:49:10.604Z,100.00
2022-12-29T05:52:12.992Z,100.00
2022-12-29T05:55:15.629Z,100.00
2022-12-29T05:58:19.015Z,100.00
2022-12-29T06:01:23.128Z,100.00
2022-12-29T06:04:25.638Z,100.00
2022-12-29T06:07:28.206Z,100.00
2022-12-29T06:10:30.671Z,100.00
2022-12-29T06:13:33.243Z,100.00
2022-12-29T06:16:36.015Z,100.00
2022-12-29T06:19:39.444Z,100.00
2022-12-29T06:22:42.436Z,100.00
2022-12-29T06:25:45.102Z,100.00
2022-12-29T06:28:48.291Z,100.00
2022-12-29T06:31:57.115Z,100.00
2022-12-29T06:35:00.356Z,100.00
2022-12-29T06:38:02.612Z,100.00
2022-12-29T06:41:06.128Z,100.00
2022-12-29T06:44:13.095Z,100.00
2022-12-29T06:47:16.625Z,100.00
2022-12-29T06:50:18.806Z,100.00
2022-12-29T06:53:21.239Z,100.00
2022-12-29T06:56:23.505Z,100.00
2022-12-29T06:59:26.742Z,100.00
2022-12-29T07:02:29.177Z,100.00
2022-12-29T07:05:33.560Z,100.00
2022-12-29T07:08:35.814Z,100.00
2022-12-29T07:11:38.220Z,100.00
2022-12-29T07:14:43.173Z,100.00
2022-12-29T07:17:46.171Z,100.00
2022-12-29T07:20:48.855Z,100.00
2022-12-29T07:23:51.296Z,100.00
2022-12-29T07:26:53.666Z,100.00
2022-12-29T07:29:56.168Z,100.00
2022-12-29T07:32:58.455Z,100.00
2022-12-29T07:36:01.125Z,100.00
2022-12-29T07:39:04.062Z,99.39
2022-12-29T07:42:06.587Z,99.35
2022-12-29T07:45:10.607Z,98.05
2022-12-29T07:48:13.474Z,96.74
2022-12-29T07:51:15.778Z,96.17
2022-12-29T07:54:19.343Z,95.38
2022-12-29T07:57:26.471Z,94.75
2022-12-29T08:00:32.344Z,93.07
2022-12-29T08:03:34.844Z,93.47
2022-12-29T08:06:38.701Z,93.17
2022-12-29T08:09:41.226Z,93.07
2022-12-29T08:12:44.459Z,93.14
2022-12-29T08:15:46.999Z,91.32
2022-12-29T08:18:49.165Z,86.47
2022-12-29T08:21:52.212Z,82.98
2022-12-29T08:24:55.066Z,82.20
2022-12-29T08:27:57.751Z,85.23
2022-12-29T08:31:01.803Z,86.85
2022-12-29T08:34:04.475Z,89.65
2022-12-29T08:37:06.696Z,91.55
2022-12-29T08:40:09.829Z,91.82
2022-12-29T08:43:15.515Z,92.61
2022-12-29T08:46:21.032Z,92.59
2022-12-29T08:49:23.304Z,92.79
2022-12-29T08:52:26.702Z,92.39
2022-12-29T08:55:28.934Z,91.89
2022-12-29T08:58:32.728Z,90.67
2022-12-29T09:01:37.299Z,91.32
2022-12-29T09:04:39.971Z,90.59
2022-12-29T09:07:42.336Z,91.34
2022-12-29T09:10:45.539Z,91.61
2022-12-29T09:13:48.108Z,91.33
2022-12-29T09:17:11.694Z,90.93
2022-12-29T09:20:23.133Z,88.04
2022-12-29T09:23:26.130Z,84.93
2022-12-29T09:26:28.308Z,83.00
2022-12-29T09:29:30.763Z,83.55
2022-12-29T09:32:34.280Z,85.32
2022-12-29T09:35:37.687Z,85.03
2022-12-29T09:38:39.852Z,84.51
2022-12-29T09:41:51.499Z,83.79
2022-12-29T09:45:27.475Z,84.91
2022-12-29T09:48:38.538Z,84.81
2022-12-29T09:51:44.779Z,85.13
2022-12-29T09:55:11.960Z,84.83
2022-12-29T09:58:40.840Z,83.96
2022-12-29T10:02:14.872Z,82.52
2022-12-29T10:05:31.400Z,83.08
2022-12-29T10:09:10.213Z,83.41
2022-12-29T10:12:27.749Z,82.45
2022-12-29T10:16:02.234Z,83.36
2022-12-29T10:19:42.903Z,83.79
2022-12-29T10:23:10.725Z,82.05
2022-12-29T10:26:29.479Z,80.79
2022-12-29T10:29:38.347Z,80.62
2022-12-29T10:32:49.438Z,80.98
2022-12-29T10:35:52.319Z,80.46
2022-12-29T10:39:27.793Z,79.76
2022-12-29T10:42:41.657Z,75.29
2022-12-29T10:45:44.883Z,69.44
2022-12-29T10:48:47.742Z,56.37
2022-12-29T10:51:52.993Z,46.92
2022-12-29T10:55:03.678Z,44.69
2022-12-29T10:58:08.214Z,46.54
2022-12-29T11:01:13.307Z,49.37
2022-12-29T11:04:36.458Z,53.83
2022-12-29T11:07:39.340Z,58.49
2022-12-29T11:10:44.959Z,60.92
2022-12-29T11:13:49.901Z,58.40
2022-12-29T11:17:00.831Z,53.28
2022-12-29T11:20:35.743Z,48.07
2022-12-29T11:23:40.734Z,44.59
2022-12-29T11:26:45.576Z,44.93
2022-12-29T11:29:48.096Z,42.09
2022-12-29T11:32:54.903Z,37.60
2022-12-29T11:36:05.201Z,32.13
2022-12-29T11:39:24.046Z,30.57
2022-12-29T11:42:52.307Z,29.15
2022-12-29T11:45:54.940Z,26.72
2022-12-29T11:49:00.609Z,23.59
2022-12-29T11:52:02.850Z,23.28
2022-12-29T11:55:08.191Z,24.13
2022-12-29T11:58:18.085Z,23.24
2022-12-29T12:01:28.551Z,24.36
2022-12-29T12:04:36.996Z,25.29
2022-12-29T12:07:43.332Z,27.28
2022-12-29T12:10:54.179Z,29.38
2022-12-29T12:14:03.448Z,30.21
2022-12-29T12:17:14.385Z,30.66
2022-12-29T12:20:41.656Z,33.16
2022-12-29T12:23:47.023Z,40.96
2022-12-29T12:27:23.312Z,48.46
2022-12-29T12:30:31.195Z,54.76
2022-12-29T12:33:46.068Z,59.51
2022-12-29T12:37:03.710Z,62.70
2022-12-29T12:40:35.924Z,64.92
2022-12-29T12:43:50.769Z,67.38
2022-12-29T12:47:06.303Z,68.88
2022-12-29T12:50:08.823Z,69.58
2022-12-29T12:53:32.990Z,71.11
2022-12-29T12:57:12.712Z,71.46
2022-12-29T13:00:21.279Z,72.20
2022-12-29T13:04:05.765Z,73.52
2022-12-29T13:07:10.669Z,74.48
2022-12-29T13:10:35.027Z,76.55
2022-12-29T13:13:52.312Z,77.46
2022-12-29T13:17:22.812Z,78.59
2022-12-29T13:20:48.393Z,78.35
2022-12-29T13:24:18.277Z,78.98
2022-12-29T13:27:46.660Z,79.33
2022-12-29T13:31:01.862Z,79.33
2022-12-29T13:34:16.152Z,79.31
2022-12-29T13:37:26.979Z,80.00
2022-12-29T13:40:35.230Z,80.99
2022-12-29T13:43:43.106Z,81.83
2022-12-29T13:46:47.698Z,82.62
2022-12-29T13:49:52.140Z,82.96
2022-12-29T13:53:24.260Z,83.33
2022-12-29T13:56:39.861Z,83.72
2022-12-29T13:59:53.008Z,83.76
2022-12-29T14:03:30.038Z,84.79
2022-12-29T14:06:40.084Z,85.28
2022-12-29T14:09:52.285Z,85.94
2022-12-29T14:13:04.478Z,86.40
2022-12-29T14:16:07.924Z,87.48
2022-12-29T14:19:18.485Z,88.45
2022-12-29T14:22:32.391Z,89.44
2022-12-29T14:25:58.939Z,89.63
2022-12-29T14:29:38.404Z,90.66
2022-12-29T14:33:00.825Z,91.20
2022-12-29T14:36:34.573Z,92.17
2022-12-29T14:39:45.567Z,92.89
2022-12-29T14:42:48.924Z,93.34
2022-12-29T14:45:56.645Z,93.97
